sensor_id;sensor_type;location;lat;lon;timestamp;P1;durP1;ratioP1;P2;durP2;ratioP2
41923;SDS011;27613;48.116;11.656;2024-03-17T00:02:16;3.50;;;1.42;;
41923;SDS011;27613;48.116;11.656;2024-03-17T00:04:43;1.60;;;1.27;;
41923;SDS011;27613;48.116;11.656;2024-03-17T00:07:08;1.88;;;1.30;;
41923;SDS011;27613;48.116;11.656;2024-03-17T00:09:34;2.63;;;1.60;;
41923;SDS011;27613;48.116;11.656;2024-03-17T00:11:59;1.70;;;1.40;;
41923;SDS011;27613;48.116;11.656;2024-03-17T00:14:25;1.60;;;1.30;;
41923;SDS011;27613;48.116;11.656;2024-03-17T00:16:53;3.45;;;1.48;;
41923;SDS011;27613;48.116;11.656;2024-03-17T00:19:18;2.63;;;1.80;;
41923;SDS011;27613;48.116;11.656;2024-03-17T00:21:44;1.65;;;1.20;;
41923;SDS011;27613;48.116;11.656;2024-03-17T00:24:10;2.42;;;1.52;;
41923;SDS011;27613;48.116;11.656;2024-03-17T00:26:35;2.33;;;1.45;;
41923;SDS011;27613;48.116;11.656;2024-03-17T00:29:01;2.88;;;1.70;;
41923;SDS011;27613;48.116;11.656;2024-03-17T00:31:28;2.25;;;1.48;;
41923;SDS011;27613;48.116;11.656;2024-03-17T00:33:53;3.25;;;1.63;;
41923;SDS011;27613;48.116;11.656;2024-03-17T00:36:19;3.25;;;1.92;;
41923;SDS011;27613;48.116;11.656;2024-03-17T00:38:45;2.30;;;1.60;;
41923;SDS011;27613;48.116;11.656;2024-03-17T00:41:10;1.85;;;1.40;;
41923;SDS011;27613;48.116;11.656;2024-03-17T00:43:36;3.45;;;1.73;;
41923;SDS011;27613;48.116;11.656;2024-03-17T00:46:02;1.92;;;1.60;;
41923;SDS011;27613;48.116;11.656;2024-03-17T00:48:28;2.35;;;1.75;;
41923;SDS011;27613;48.116;11.656;2024-03-17T00:50:54;2.30;;;1.70;;
41923;SDS011;27613;48.116;11.656;2024-03-17T00:53:20;2.53;;;1.70;;
41923;SDS011;27613;48.116;11.656;2024-03-17T00:55:50;1.67;;;1.40;;
41923;SDS011;27613;48.116;11.656;2024-03-17T00:58:20;2.70;;;1.75;;
41923;SDS011;27613;48.116;11.656;2024-03-17T01:00:46;3.28;;;1.70;;
41923;SDS011;27613;48.116;11.656;2024-03-17T01:03:12;5.55;;;1.88;;
41923;SDS011;27613;48.116;11.656;2024-03-17T01:05:38;2.50;;;1.35;;
41923;SDS011;27613;48.116;11.656;2024-03-17T01:08:07;1.90;;;1.40;;
41923;SDS011;27613;48.116;11.656;2024-03-17T01:10:33;3.42;;;1.70;;
41923;SDS011;27613;48.116;11.656;2024-03-17T01:13:01;2.88;;;1.80;;
41923;SDS011;27613;48.116;11.656;2024-03-17T01:15:27;2.35;;;1.60;;
41923;SDS011;27613;48.116;11.656;2024-03-17T01:17:52;2.47;;;1.60;;
41923;SDS011;27613;48.116;11.656;2024-03-17T01:20:18;3.08;;;1.60;;
41923;SDS011;27613;48.116;11.656;2024-03-17T01:22:44;2.47;;;1.40;;
41923;SDS011;27613;48.116;11.656;2024-03-17T01:25:09;3.35;;;1.83;;
41923;SDS011;27613;48.116;11.656;2024-03-17T01:27:35;3.75;;;1.55;;
41923;SDS011;27613;48.116;11.656;2024-03-17T01:30:01;2.15;;;1.65;;
41923;SDS011;27613;48.116;11.656;2024-03-17T01:32:26;2.50;;;1.70;;
41923;SDS011;27613;48.116;11.656;2024-03-17T01:34:52;3.38;;;2.00;;
41923;SDS011;27613;48.116;11.656;2024-03-17T01:37:17;2.20;;;1.60;;
41923;SDS011;27613;48.116;11.656;2024-03-17T01:39:43;3.63;;;2.13;;
41923;SDS011;27613;48.116;11.656;2024-03-17T01:42:09;2.25;;;1.50;;
41923;SDS011;27613;48.116;11.656;2024-03-17T01:44:34;4.68;;;1.77;;
41923;SDS011;27613;48.116;11.656;2024-03-17T01:47:00;3.60;;;1.70;;
41923;SDS011;27613;48.116;11.656;2024-03-17T01:49:25;3.80;;;1.60;;
41923;SDS011;27613;48.116;11.656;2024-03-17T01:51:51;2.38;;;1.58;;
41923;SDS011;27613;48.116;11.656;2024-03-17T01:54:18;2.00;;;1.58;;
41923;SDS011;27613;48.116;11.656;2024-03-17T01:56:43;2.83;;;1.85;;
41923;SDS011;27613;48.116;11.656;2024-03-17T01:59:10;2.78;;;1.80;;
41923;SDS011;27613;48.116;11.656;2024-03-17T02:01:36;9.15;;;1.83;;
41923;SDS011;27613;48.116;11.656;2024-03-17T02:04:02;3.03;;;2.00;;
41923;SDS011;27613;48.116;11.656;2024-03-17T02:06:29;2.30;;;1.70;;
41923;SDS011;27613;48.116;11.656;2024-03-17T02:08:55;2.28;;;1.55;;
41923;SDS011;27613;48.116;11.656;2024-03-17T02:11:25;2.60;;;1.75;;
41923;SDS011;27613;48.116;11.656;2024-03-17T02:13:52;2.42;;;1.70;;
41923;SDS011;27613;48.116;11.656;2024-03-17T02:16:18;3.28;;;2.10;;
41923;SDS011;27613;48.116;11.656;2024-03-17T02:18:45;3.35;;;2.13;;
41923;SDS011;27613;48.116;11.656;2024-03-17T02:21:11;3.20;;;1.88;;
41923;SDS011;27613;48.116;11.656;2024-03-17T02:23:37;2.60;;;1.77;;
41923;SDS011;27613;48.116;11.656;2024-03-17T02:26:03;5.22;;;1.90;;
41923;SDS011;27613;48.116;11.656;2024-03-17T02:28:28;2.95;;;1.60;;
41923;SDS011;27613;48.116;11.656;2024-03-17T02:30:54;2.70;;;1.90;;
41923;SDS011;27613;48.116;11.656;2024-03-17T02:33:19;2.40;;;1.65;;
41923;SDS011;27613;48.116;11.656;2024-03-17T02:35:48;2.97;;;1.85;;
41923;SDS011;27613;48.116;11.656;2024-03-17T02:38:16;2.92;;;2.05;;
41923;SDS011;27613;48.116;11.656;2024-03-17T02:41:02;2.53;;;2.05;;
41923;SDS011;27613;48.116;11.656;2024-03-17T02:43:28;3.17;;;2.08;;
41923;SDS011;27613;48.116;11.656;2024-03-17T02:45:54;3.00;;;2.20;;
41923;SDS011;27613;48.116;11.656;2024-03-17T02:48:20;3.67;;;2.10;;
41923;SDS011;27613;48.116;11.656;2024-03-17T02:50:47;3.00;;;1.85;;
41923;SDS011;27613;48.116;11.656;2024-03-17T02:53:13;3.05;;;2.05;;
41923;SDS011;27613;48.116;11.656;2024-03-17T02:55:39;2.58;;;1.80;;
41923;SDS011;27613;48.116;11.656;2024-03-17T02:58:04;3.75;;;2.20;;
41923;SDS011;27613;48.116;11.656;2024-03-17T03:00:31;2.72;;;1.65;;
41923;SDS011;27613;48.116;11.656;2024-03-17T03:02:57;2.90;;;1.85;;
41923;SDS011;27613;48.116;11.656;2024-03-17T03:05:22;2.78;;;1.90;;
41923;SDS011;27613;48.116;11.656;2024-03-17T03:07:48;3.30;;;1.90;;
41923;SDS011;27613;48.116;11.656;2024-03-17T03:10:13;2.70;;;1.70;;
41923;SDS011;27613;48.116;11.656;2024-03-17T03:12:39;2.22;;;1.70;;
41923;SDS011;27613;48.116;11.656;2024-03-17T03:15:04;3.13;;;1.80;;
41923;SDS011;27613;48.116;11.656;2024-03-17T03:17:30;2.97;;;2.03;;
41923;SDS011;27613;48.116;11.656;2024-03-17T03:19:56;3.30;;;1.73;;
41923;SDS011;27613;48.116;11.656;2024-03-17T03:22:21;2.72;;;1.70;;
41923;SDS011;27613;48.116;11.656;2024-03-17T03:24:47;2.42;;;1.55;;
41923;SDS011;27613;48.116;11.656;2024-03-17T03:27:16;2.50;;;1.88;;
41923;SDS011;27613;48.116;11.656;2024-03-17T03:29:42;3.40;;;2.28;;
41923;SDS011;27613;48.116;11.656;2024-03-17T03:32:08;2.78;;;1.80;;
41923;SDS011;27613;48.116;11.656;2024-03-17T03:34:33;2.67;;;1.85;;
41923;SDS011;27613;48.116;11.656;2024-03-17T03:36:59;2.88;;;1.90;;
41923;SDS011;27613;48.116;11.656;2024-03-17T03:39:24;3.42;;;1.77;;
41923;SDS011;27613;48.116;11.656;2024-03-17T03:41:56;2.92;;;1.95;;
41923;SDS011;27613;48.116;11.656;2024-03-17T03:44:22;3.08;;;1.80;;
41923;SDS011;27613;48.116;11.656;2024-03-17T03:46:47;3.47;;;2.10;;
41923;SDS011;27613;48.116;11.656;2024-03-17T03:49:13;3.13;;;2.05;;
41923;SDS011;27613;48.116;11.656;2024-03-17T03:51:38;2.78;;;1.90;;
41923;SDS011;27613;48.116;11.656;2024-03-17T03:54:04;3.33;;;2.00;;
41923;SDS011;27613;48.116;11.656;2024-03-17T03:56:31;3.75;;;1.92;;
41923;SDS011;27613;48.116;11.656;2024-03-17T03:58:58;2.20;;;1.75;;
41923;SDS011;27613;48.116;11.656;2024-03-17T04:01:23;3.08;;;2.03;;
41923;SDS011;27613;48.116;11.656;2024-03-17T04:03:49;2.78;;;2.00;;
41923;SDS011;27613;48.116;11.656;2024-03-17T04:06:15;4.35;;;2.35;;
41923;SDS011;27613;48.116;11.656;2024-03-17T04:08:41;6.22;;;2.03;;
41923;SDS011;27613;48.116;11.656;2024-03-17T04:11:07;3.03;;;1.90;;
41923;SDS011;27613;48.116;11.656;2024-03-17T04:13:33;2.80;;;1.85;;
41923;SDS011;27613;48.116;11.656;2024-03-17T04:16:00;3.17;;;2.17;;
41923;SDS011;27613;48.116;11.656;2024-03-17T04:18:26;3.35;;;2.03;;
41923;SDS011;27613;48.116;11.656;2024-03-17T04:20:55;5.10;;;2.33;;
41923;SDS011;27613;48.116;11.656;2024-03-17T04:23:21;5.72;;;2.40;;
41923;SDS011;27613;48.116;11.656;2024-03-17T04:25:48;2.72;;;1.88;;
41923;SDS011;27613;48.116;11.656;2024-03-17T04:28:15;3.83;;;2.35;;
41923;SDS011;27613;48.116;11.656;2024-03-17T04:30:41;2.65;;;2.05;;
41923;SDS011;27613;48.116;11.656;2024-03-17T04:33:11;5.00;;;2.13;;
41923;SDS011;27613;48.116;11.656;2024-03-17T04:35:41;3.30;;;1.92;;
41923;SDS011;27613;48.116;11.656;2024-03-17T04:38:07;2.90;;;1.80;;
41923;SDS011;27613;48.116;11.656;2024-03-17T04:40:33;4.55;;;2.10;;
41923;SDS011;27613;48.116;11.656;2024-03-17T04:42:59;2.50;;;1.92;;
41923;SDS011;27613;48.116;11.656;2024-03-17T04:45:24;3.28;;;2.33;;
41923;SDS011;27613;48.116;11.656;2024-03-17T04:47:51;2.38;;;1.75;;
41923;SDS011;27613;48.116;11.656;2024-03-17T04:50:16;2.63;;;1.88;;
41923;SDS011;27613;48.116;11.656;2024-03-17T04:52:42;2.47;;;1.85;;
41923;SDS011;27613;48.116;11.656;2024-03-17T04:55:07;2.88;;;2.00;;
41923;SDS011;27613;48.116;11.656;2024-03-17T04:57:33;5.07;;;1.73;;
41923;SDS011;27613;48.116;11.656;2024-03-17T04:59:58;4.68;;;2.10;;
41923;SDS011;27613;48.116;11.656;2024-03-17T05:02:24;3.72;;;2.30;;
41923;SDS011;27613;48.116;11.656;2024-03-17T05:04:50;2.20;;;1.67;;
41923;SDS011;27613;48.116;11.656;2024-03-17T05:07:15;3.88;;;2.38;;
41923;SDS011;27613;48.116;11.656;2024-03-17T05:09:41;3.95;;;2.58;;
41923;SDS011;27613;48.116;11.656;2024-03-17T05:12:08;3.10;;;2.05;;
41923;SDS011;27613;48.116;11.656;2024-03-17T05:14:34;3.00;;;2.10;;
41923;SDS011;27613;48.116;11.656;2024-03-17T05:17:00;3.20;;;2.10;;
41923;SDS011;27613;48.116;11.656;2024-03-17T05:19:25;3.65;;;2.08;;
41923;SDS011;27613;48.116;11.656;2024-03-17T05:21:51;2.83;;;1.90;;
41923;SDS011;27613;48.116;11.656;2024-03-17T05:24:17;2.75;;;2.00;;
41923;SDS011;27613;48.116;11.656;2024-03-17T05:26:42;2.53;;;1.88;;
41923;SDS011;27613;48.116;11.656;2024-03-17T05:29:08;2.97;;;2.13;;
41923;SDS011;27613;48.116;11.656;2024-03-17T05:31:34;3.65;;;2.22;;
41923;SDS011;27613;48.116;11.656;2024-03-17T05:33:59;4.00;;;2.35;;
41923;SDS011;27613;48.116;11.656;2024-03-17T05:36:25;3.97;;;2.40;;
41923;SDS011;27613;48.116;11.656;2024-03-17T05:38:51;2.75;;;2.10;;
41923;SDS011;27613;48.116;11.656;2024-03-17T05:41:16;3.90;;;1.95;;
41923;SDS011;27613;48.116;11.656;2024-03-17T05:43:42;3.25;;;2.17;;
41923;SDS011;27613;48.116;11.656;2024-03-17T05:46:08;2.95;;;2.28;;
41923;SDS011;27613;48.116;11.656;2024-03-17T05:48:36;3.50;;;2.15;;
41923;SDS011;27613;48.116;11.656;2024-03-17T05:51:04;3.22;;;2.22;;
41923;SDS011;27613;48.116;11.656;2024-03-17T05:53:33;4.15;;;2.38;;
41923;SDS011;27613;48.116;11.656;2024-03-17T05:56:00;3.03;;;2.05;;
41923;SDS011;27613;48.116;11.656;2024-03-17T05:58:26;4.35;;;2.42;;
41923;SDS011;27613;48.116;11.656;2024-03-17T06:00:52;8.40;;;2.10;;
41923;SDS011;27613;48.116;11.656;2024-03-17T06:03:17;4.35;;;2.42;;
41923;SDS011;27613;48.116;11.656;2024-03-17T06:05:43;2.35;;;1.77;;
41923;SDS011;27613;48.116;11.656;2024-03-17T06:08:11;2.85;;;1.80;;
41923;SDS011;27613;48.116;11.656;2024-03-17T06:10:37;2.70;;;1.95;;
41923;SDS011;27613;48.116;11.656;2024-03-17T06:13:07;3.63;;;2.00;;
41923;SDS011;27613;48.116;11.656;2024-03-17T06:15:37;2.95;;;1.85;;
41923;SDS011;27613;48.116;11.656;2024-03-17T06:18:03;4.78;;;2.38;;
41923;SDS011;27613;48.116;11.656;2024-03-17T06:20:29;3.00;;;1.88;;
41923;SDS011;27613;48.116;11.656;2024-03-17T06:22:55;3.15;;;2.30;;
41923;SDS011;27613;48.116;11.656;2024-03-17T06:25:22;4.63;;;2.20;;
41923;SDS011;27613;48.116;11.656;2024-03-17T06:27:53;3.80;;;2.35;;
41923;SDS011;27613;48.116;11.656;2024-03-17T06:30:18;4.10;;;2.40;;
41923;SDS011;27613;48.116;11.656;2024-03-17T06:32:44;3.08;;;2.20;;
41923;SDS011;27613;48.116;11.656;2024-03-17T06:35:11;4.20;;;2.47;;
41923;SDS011;27613;48.116;11.656;2024-03-17T06:37:37;3.55;;;2.30;;
41923;SDS011;27613;48.116;11.656;2024-03-17T06:40:03;3.58;;;2.42;;
41923;SDS011;27613;48.116;11.656;2024-03-17T06:42:30;3.25;;;2.53;;
41923;SDS011;27613;48.116;11.656;2024-03-17T06:44:56;4.20;;;2.63;;
41923;SDS011;27613;48.116;11.656;2024-03-17T06:47:21;3.38;;;2.42;;
41923;SDS011;27613;48.116;11.656;2024-03-17T06:49:47;2.97;;;2.22;;
41923;SDS011;27613;48.116;11.656;2024-03-17T06:52:13;3.08;;;2.10;;
41923;SDS011;27613;48.116;11.656;2024-03-17T06:54:38;3.25;;;2.30;;
41923;SDS011;27613;48.116;11.656;2024-03-17T06:57:04;3.38;;;2.10;;
41923;SDS011;27613;48.116;11.656;2024-03-17T06:59:32;3.42;;;2.50;;
41923;SDS011;27613;48.116;11.656;2024-03-17T07:01:58;4.05;;;2.72;;
41923;SDS011;27613;48.116;11.656;2024-03-17T07:04:23;4.45;;;2.40;;
41923;SDS011;27613;48.116;11.656;2024-03-17T07:06:49;3.42;;;2.55;;
41923;SDS011;27613;48.116;11.656;2024-03-17T07:09:15;3.45;;;2.00;;
41923;SDS011;27613;48.116;11.656;2024-03-17T07:11:42;4.70;;;2.17;;
41923;SDS011;27613;48.116;11.656;2024-03-17T07:14:09;3.17;;;2.08;;
41923;SDS011;27613;48.116;11.656;2024-03-17T07:16:34;3.42;;;2.17;;
41923;SDS011;27613;48.116;11.656;2024-03-17T07:19:01;3.10;;;2.20;;
41923;SDS011;27613;48.116;11.656;2024-03-17T07:21:27;2.85;;;2.00;;
41923;SDS011;27613;48.116;11.656;2024-03-17T07:23:53;5.00;;;2.35;;
41923;SDS011;27613;48.116;11.656;2024-03-17T07:26:18;3.22;;;2.08;;
41923;SDS011;27613;48.116;11.656;2024-03-17T07:28:44;3.20;;;1.92;;
41923;SDS011;27613;48.116;11.656;2024-03-17T07:31:09;3.55;;;2.10;;
41923;SDS011;27613;48.116;11.656;2024-03-17T07:33:35;2.97;;;2.00;;
41923;SDS011;27613;48.116;11.656;2024-03-17T07:36:01;3.15;;;2.20;;
41923;SDS011;27613;48.116;11.656;2024-03-17T07:38:28;2.42;;;1.73;;
41923;SDS011;27613;48.116;11.656;2024-03-17T07:40:55;2.63;;;1.92;;
41923;SDS011;27613;48.116;11.656;2024-03-17T07:43:29;3.15;;;2.13;;
41923;SDS011;27613;48.116;11.656;2024-03-17T07:46:00;3.03;;;1.92;;
41923;SDS011;27613;48.116;11.656;2024-03-17T07:48:36;4.45;;;2.22;;
41923;SDS011;27613;48.116;11.656;2024-03-17T07:51:03;2.78;;;1.77;;
41923;SDS011;27613;48.116;11.656;2024-03-17T07:53:30;3.83;;;1.90;;
41923;SDS011;27613;48.116;11.656;2024-03-17T07:56:17;2.88;;;2.13;;
41923;SDS011;27613;48.116;11.656;2024-03-17T07:58:43;2.88;;;1.98;;
41923;SDS011;27613;48.116;11.656;2024-03-17T08:01:10;2.60;;;1.70;;
41923;SDS011;27613;48.116;11.656;2024-03-17T08:03:40;5.78;;;1.85;;
41923;SDS011;27613;48.116;11.656;2024-03-17T08:06:09;2.78;;;1.58;;
41923;SDS011;27613;48.116;11.656;2024-03-17T08:08:36;3.97;;;1.77;;
41923;SDS011;27613;48.116;11.656;2024-03-17T08:11:01;3.05;;;1.45;;
41923;SDS011;27613;48.116;11.656;2024-03-17T08:13:28;2.97;;;1.67;;
41923;SDS011;27613;48.116;11.656;2024-03-17T08:15:59;1.75;;;1.23;;
41923;SDS011;27613;48.116;11.656;2024-03-17T08:18:33;2.57;;;1.60;;
41923;SDS011;27613;48.116;11.656;2024-03-17T08:21:02;2.15;;;1.30;;
41923;SDS011;27613;48.116;11.656;2024-03-17T08:23:29;1.60;;;1.20;;
41923;SDS011;27613;48.116;11.656;2024-03-17T08:25:58;2.42;;;1.38;;
41923;SDS011;27613;48.116;11.656;2024-03-17T08:28:25;2.58;;;1.48;;
41923;SDS011;27613;48.116;11.656;2024-03-17T08:33:22;2.85;;;1.40;;
41923;SDS011;27613;48.116;11.656;2024-03-17T08:36:04;3.83;;;1.33;;
41923;SDS011;27613;48.116;11.656;2024-03-17T08:38:33;2.17;;;1.23;;
41923;SDS011;27613;48.116;11.656;2024-03-17T08:41:06;1.73;;;1.33;;
41923;SDS011;27613;48.116;11.656;2024-03-17T08:43:34;1.98;;;1.33;;
41923;SDS011;27613;48.116;11.656;2024-03-17T08:46:04;2.20;;;1.27;;
41923;SDS011;27613;48.116;11.656;2024-03-17T08:48:37;2.67;;;1.50;;
41923;SDS011;27613;48.116;11.656;2024-03-17T08:51:04;1.90;;;1.30;;
41923;SDS011;27613;48.116;11.656;2024-03-17T08:53:31;1.65;;;1.20;;
41923;SDS011;27613;48.116;11.656;2024-03-17T08:55:57;1.73;;;1.08;;
41923;SDS011;27613;48.116;11.656;2024-03-17T08:58:23;1.83;;;1.10;;
41923;SDS011;27613;48.116;11.656;2024-03-17T09:00:50;2.60;;;1.27;;
41923;SDS011;27613;48.116;11.656;2024-03-17T09:03:16;1.88;;;1.40;;
41923;SDS011;27613;48.116;11.656;2024-03-17T09:05:45;1.20;;;0.80;;
41923;SDS011;27613;48.116;11.656;2024-03-17T09:08:19;1.05;;;0.80;;
41923;SDS011;27613;48.116;11.656;2024-03-17T09:10:47;0.98;;;0.90;;
41923;SDS011;27613;48.116;11.656;2024-03-17T09:13:15;3.30;;;1.00;;
41923;SDS011;27613;48.116;11.656;2024-03-17T09:15:54;0.93;;;0.82;;
41923;SDS011;27613;48.116;11.656;2024-03-17T09:18:24;1.00;;;0.90;;
41923;SDS011;27613;48.116;11.656;2024-03-17T09:21:02;1.50;;;0.98;;
41923;SDS011;27613;48.116;11.656;2024-03-17T09:23:29;1.17;;;0.93;;
41923;SDS011;27613;48.116;11.656;2024-03-17T09:25:59;1.15;;;0.70;;
41923;SDS011;27613;48.116;11.656;2024-03-17T09:28:29;1.48;;;1.05;;
41923;SDS011;27613;48.116;11.656;2024-03-17T09:30:56;1.40;;;0.70;;
41923;SDS011;27613;48.116;11.656;2024-03-17T09:33:23;1.33;;;0.80;;
41923;SDS011;27613;48.116;11.656;2024-03-17T09:38:24;1.10;;;0.70;;
41923;SDS011;27613;48.116;11.656;2024-03-17T09:40:50;1.25;;;0.82;;
41923;SDS011;27613;48.116;11.656;2024-03-17T09:43:20;0.82;;;0.70;;
41923;SDS011;27613;48.116;11.656;2024-03-17T09:45:46;1.30;;;0.90;;
41923;SDS011;27613;48.116;11.656;2024-03-17T09:48:19;1.38;;;1.00;;
41923;SDS011;27613;48.116;11.656;2024-03-17T09:50:51;1.50;;;1.00;;
41923;SDS011;27613;48.116;11.656;2024-03-17T09:53:24;2.75;;;0.85;;
41923;SDS011;27613;48.116;11.656;2024-03-17T09:56:01;1.45;;;0.93;;
41923;SDS011;27613;48.116;11.656;2024-03-17T09:58:33;2.35;;;1.08;;
41923;SDS011;27613;48.116;11.656;2024-03-17T10:00:59;1.00;;;0.90;;
41923;SDS011;27613;48.116;11.656;2024-03-17T10:03:41;0.60;;;0.60;;
41923;SDS011;27613;48.116;11.656;2024-03-17T10:06:07;1.58;;;0.80;;
41923;SDS011;27613;48.116;11.656;2024-03-17T10:08:40;2.60;;;0.95;;
41923;SDS011;27613;48.116;11.656;2024-03-17T10:11:09;1.63;;;0.80;;
41923;SDS011;27613;48.116;11.656;2024-03-17T10:13:36;1.50;;;1.00;;
41923;SDS011;27613;48.116;11.656;2024-03-17T10:16:02;0.85;;;0.75;;
41923;SDS011;27613;48.116;11.656;2024-03-17T10:18:28;3.72;;;0.88;;
41923;SDS011;27613;48.116;11.656;2024-03-17T10:20:53;1.38;;;0.70;;
41923;SDS011;27613;48.116;11.656;2024-03-17T10:23:23;1.35;;;0.80;;
41923;SDS011;27613;48.116;11.656;2024-03-17T10:25:49;1.00;;;0.65;;
41923;SDS011;27613;48.116;11.656;2024-03-17T10:28:15;0.98;;;0.80;;
41923;SDS011;27613;48.116;11.656;2024-03-17T10:30:42;1.15;;;0.60;;
41923;SDS011;27613;48.116;11.656;2024-03-17T10:33:23;4.13;;;1.17;;
41923;SDS011;27613;48.116;11.656;2024-03-17T10:35:58;2.30;;;0.80;;
41923;SDS011;27613;48.116;11.656;2024-03-17T10:38:30;0.82;;;0.77;;
41923;SDS011;27613;48.116;11.656;2024-03-17T10:40:56;2.60;;;1.05;;
41923;SDS011;27613;48.116;11.656;2024-03-17T10:43:22;2.63;;;1.10;;
41923;SDS011;27613;48.116;11.656;2024-03-17T10:45:51;1.20;;;0.80;;
41923;SDS011;27613;48.116;11.656;2024-03-17T10:48:19;2.33;;;1.00;;
41923;SDS011;27613;48.116;11.656;2024-03-17T10:50:48;2.10;;;1.25;;
41923;SDS011;27613;48.116;11.656;2024-03-17T10:53:19;0.80;;;0.70;;
41923;SDS011;27613;48.116;11.656;2024-03-17T10:55:51;1.23;;;0.93;;
41923;SDS011;27613;48.116;11.656;2024-03-17T10:58:36;2.17;;;1.02;;
41923;SDS011;27613;48.116;11.656;2024-03-17T11:01:11;1.63;;;0.95;;
41923;SDS011;27613;48.116;11.656;2024-03-17T11:03:39;1.40;;;0.73;;
41923;SDS011;27613;48.116;11.656;2024-03-17T11:06:05;1.77;;;0.82;;
41923;SDS011;27613;48.116;11.656;2024-03-17T11:08:33;1.73;;;0.95;;
41923;SDS011;27613;48.116;11.656;2024-03-17T11:10:59;0.82;;;0.57;;
41923;SDS011;27613;48.116;11.656;2024-03-17T11:13:26;1.73;;;1.00;;
41923;SDS011;27613;48.116;11.656;2024-03-17T11:15:53;1.50;;;1.00;;
41923;SDS011;27613;48.116;11.656;2024-03-17T11:20:57;2.88;;;0.98;;
41923;SDS011;27613;48.116;11.656;2024-03-17T11:23:26;1.25;;;0.88;;
41923;SDS011;27613;48.116;11.656;2024-03-17T11:25:54;1.60;;;0.93;;
41923;SDS011;27613;48.116;11.656;2024-03-17T11:31:50;3.13;;;0.82;;
41923;SDS011;27613;48.116;11.656;2024-03-17T11:33:57;1.13;;;0.70;;
41923;SDS011;27613;48.116;11.656;2024-03-17T11:41:43;1.65;;;0.80;;
41923;SDS011;27613;48.116;11.656;2024-03-17T11:49:33;1.23;;;0.80;;
41923;SDS011;27613;48.116;11.656;2024-03-17T11:52:02;1.30;;;0.90;;
41923;SDS011;27613;48.116;11.656;2024-03-17T11:54:31;1.45;;;0.85;;
41923;SDS011;27613;48.116;11.656;2024-03-17T11:57:43;2.25;;;1.08;;
41923;SDS011;27613;48.116;11.656;2024-03-17T11:59:51;1.63;;;0.70;;
41923;SDS011;27613;48.116;11.656;2024-03-17T12:02:25;1.33;;;0.70;;
41923;SDS011;27613;48.116;11.656;2024-03-17T12:04:51;1.88;;;0.68;;
41923;SDS011;27613;48.116;11.656;2024-03-17T12:07:26;1.67;;;0.77;;
41923;SDS011;27613;48.116;11.656;2024-03-17T12:09:53;1.40;;;0.70;;
41923;SDS011;27613;48.116;11.656;2024-03-17T12:12:23;1.65;;;0.85;;
41923;SDS011;27613;48.116;11.656;2024-03-17T12:14:51;2.53;;;0.80;;
41923;SDS011;27613;48.116;11.656;2024-03-17T12:17:20;2.58;;;1.00;;
41923;SDS011;27613;48.116;11.656;2024-03-17T12:19:46;1.92;;;0.80;;
41923;SDS011;27613;48.116;11.656;2024-03-17T12:22:15;1.98;;;0.90;;
41923;SDS011;27613;48.116;11.656;2024-03-17T12:24:47;3.35;;;0.80;;
41923;SDS011;27613;48.116;11.656;2024-03-17T12:27:21;2.03;;;0.90;;
41923;SDS011;27613;48.116;11.656;2024-03-17T12:29:48;2.03;;;1.00;;
41923;SDS011;27613;48.116;11.656;2024-03-17T12:32:20;2.28;;;0.80;;
41923;SDS011;27613;48.116;11.656;2024-03-17T12:34:51;1.60;;;0.70;;
41923;SDS011;27613;48.116;11.656;2024-03-17T12:39:45;3.92;;;1.17;;
41923;SDS011;27613;48.116;11.656;2024-03-17T12:42:12;1.10;;;0.68;;
41923;SDS011;27613;48.116;11.656;2024-03-17T12:44:58;1.25;;;0.80;;
41923;SDS011;27613;48.116;11.656;2024-03-17T12:47:27;2.72;;;1.02;;
41923;SDS011;27613;48.116;11.656;2024-03-17T12:49:56;2.50;;;1.00;;
41923;SDS011;27613;48.116;11.656;2024-03-17T12:52:24;2.70;;;0.95;;
41923;SDS011;27613;48.116;11.656;2024-03-17T12:54:57;1.48;;;0.80;;
41923;SDS011;27613;48.116;11.656;2024-03-17T12:57:48;1.23;;;0.80;;
41923;SDS011;27613;48.116;11.656;2024-03-17T13:00:34;4.10;;;1.00;;
41923;SDS011;27613;48.116;11.656;2024-03-17T13:03:04;1.58;;;1.00;;
41923;SDS011;27613;48.116;11.656;2024-03-17T13:05:31;1.55;;;1.00;;
41923;SDS011;27613;48.116;11.656;2024-03-17T13:08:00;2.10;;;1.00;;
41923;SDS011;27613;48.116;11.656;2024-03-17T13:10:26;2.00;;;1.05;;
41923;SDS011;27613;48.116;11.656;2024-03-17T13:15:27;2.17;;;1.05;;
41923;SDS011;27613;48.116;11.656;2024-03-17T13:17:55;2.75;;;1.10;;
41923;SDS011;27613;48.116;11.656;2024-03-17T13:20:22;3.20;;;1.20;;
41923;SDS011;27613;48.116;11.656;2024-03-17T13:22:47;2.53;;;1.10;;
41923;SDS011;27613;48.116;11.656;2024-03-17T13:25:14;2.63;;;0.98;;
41923;SDS011;27613;48.116;11.656;2024-03-17T13:27:44;2.38;;;1.00;;
41923;SDS011;27613;48.116;11.656;2024-03-17T13:30:13;2.15;;;1.10;;
41923;SDS011;27613;48.116;11.656;2024-03-17T13:32:42;2.17;;;1.08;;
41923;SDS011;27613;48.116;11.656;2024-03-17T13:35:15;1.58;;;0.90;;
41923;SDS011;27613;48.116;11.656;2024-03-17T13:37:43;3.85;;;1.02;;
41923;SDS011;27613;48.116;11.656;2024-03-17T13:40:12;4.43;;;1.10;;
41923;SDS011;27613;48.116;11.656;2024-03-17T13:42:41;2.50;;;1.20;;
41923;SDS011;27613;48.116;11.656;2024-03-17T13:45:09;1.95;;;0.95;;
41923;SDS011;27613;48.116;11.656;2024-03-17T13:47:37;1.63;;;0.82;;
41923;SDS011;27613;48.116;11.656;2024-03-17T13:50:03;1.38;;;1.00;;
41923;SDS011;27613;48.116;11.656;2024-03-17T13:52:31;0.93;;;0.70;;
41923;SDS011;27613;48.116;11.656;2024-03-17T13:54:57;1.17;;;1.00;;
41923;SDS011;27613;48.116;11.656;2024-03-17T13:57:24;2.15;;;0.90;;
41923;SDS011;27613;48.116;11.656;2024-03-17T13:59:50;1.92;;;0.80;;
41923;SDS011;27613;48.116;11.656;2024-03-17T14:02:17;1.85;;;0.88;;
41923;SDS011;27613;48.116;11.656;2024-03-17T14:04:43;1.80;;;0.90;;
41923;SDS011;27613;48.116;11.656;2024-03-17T14:07:09;1.30;;;0.80;;
41923;SDS011;27613;48.116;11.656;2024-03-17T14:09:34;1.25;;;0.88;;
41923;SDS011;27613;48.116;11.656;2024-03-17T14:12:00;1.70;;;0.93;;
41923;SDS011;27613;48.116;11.656;2024-03-17T14:14:26;2.42;;;0.88;;
41923;SDS011;27613;48.116;11.656;2024-03-17T14:16:51;1.88;;;0.70;;
41923;SDS011;27613;48.116;11.656;2024-03-17T14:19:16;2.45;;;1.02;;
41923;SDS011;27613;48.116;11.656;2024-03-17T14:21:42;2.40;;;1.38;;
41923;SDS011;27613;48.116;11.656;2024-03-17T14:24:08;2.53;;;1.30;;
41923;SDS011;27613;48.116;11.656;2024-03-17T14:26:35;0.80;;;0.70;;
41923;SDS011;27613;48.116;11.656;2024-03-17T14:29:01;4.35;;;1.30;;
41923;SDS011;27613;48.116;11.656;2024-03-17T14:31:31;2.00;;;1.00;;
41923;SDS011;27613;48.116;11.656;2024-03-17T14:34:00;1.27;;;0.77;;
41923;SDS011;27613;48.116;11.656;2024-03-17T14:36:26;4.75;;;0.68;;
41923;SDS011;27613;48.116;11.656;2024-03-17T14:38:53;1.75;;;0.93;;
41923;SDS011;27613;48.116;11.656;2024-03-17T14:41:19;1.77;;;0.85;;
41923;SDS011;27613;48.116;11.656;2024-03-17T14:43:44;2.13;;;0.77;;
41923;SDS011;27613;48.116;11.656;2024-03-17T14:46:11;2.35;;;1.10;;
41923;SDS011;27613;48.116;11.656;2024-03-17T14:48:39;8.77;;;1.63;;
41923;SDS011;27613;48.116;11.656;2024-03-17T14:51:05;2.15;;;1.08;;
41923;SDS011;27613;48.116;11.656;2024-03-17T14:53:31;3.00;;;1.10;;
41923;SDS011;27613;48.116;11.656;2024-03-17T14:55:57;2.03;;;1.10;;
41923;SDS011;27613;48.116;11.656;2024-03-17T14:58:22;3.00;;;1.40;;
41923;SDS011;27613;48.116;11.656;2024-03-17T15:00:48;2.15;;;1.00;;
41923;SDS011;27613;48.116;11.656;2024-03-17T15:03:13;1.73;;;0.93;;